createdAt,value
2023-04-10T00:01:12.282Z,97931.13
2023-04-10T00:03:41.535Z,97929.66
2023-04-10T00:06:11.879Z,97925.41
2023-04-10T00:08:40.091Z,97918.53
2023-04-10T00:11:08.680Z,97922.38
2023-04-10T00:13:36.823Z,97923.56
2023-04-10T00:16:05.352Z,97920.53
2023-04-10T00:18:34.119Z,97929.78
2023-04-10T00:21:04.114Z,97927.78
2023-04-10T00:23:35.145Z,97923.25
2023-04-10T00:26:03.384Z,97920.56
2023-04-10T00:28:31.931Z,97917.59
2023-04-10T00:31:00.434Z,97916.41
2023-04-10T00:33:28.680Z,97913.75
2023-04-10T00:35:57.096Z,97912.53
2023-04-10T00:38:25.343Z,97909.56
2023-04-10T00:40:55.408Z,97909.28
2023-04-10T00:43:24.498Z,97908.63
2023-04-10T00:45:59.994Z,97915.75
2023-04-10T00:48:28.635Z,97917.91
2023-04-10T00:50:56.855Z,97916.53
2023-04-10T00:53:25.017Z,97916.16
2023-04-10T00:55:56.031Z,97913.16
2023-04-10T00:58:24.505Z,97910.13
2023-04-10T01:00:52.894Z,97911.41
2023-04-10T01:03:22.834Z,97913.09
2023-04-10T01:06:00.763Z,97916.50
2023-04-10T01:08:37.897Z,97913.00
2023-04-10T01:11:14.875Z,97917.25
2023-04-10T01:13:51.959Z,97922.16
2023-04-10T01:16:26.227Z,97923.50
2023-04-10T01:19:02.271Z,97919.81
2023-04-10T01:21:32.607Z,97914.38
2023-04-10T01:24:18.000Z,97911.09
2023-04-10T01:27:03.140Z,97911.94
2023-04-10T01:29:35.939Z,97913.31
2023-04-10T01:32:09.562Z,97911.31
2023-04-10T01:34:42.401Z,97905.22
2023-04-10T01:37:17.458Z,97903.47
2023-04-10T01:39:51.518Z,97897.03
2023-04-10T01:42:22.332Z,97897.84
2023-04-10T01:44:55.051Z,97891.34
2023-04-10T01:47:25.659Z,97897.13
2023-04-10T01:49:54.923Z,97891.44
2023-04-10T01:52:25.136Z,97891.75
2023-04-10T01:55:04.712Z,97897.16
2023-04-10T01:57:40.451Z,97898.03
2023-04-10T02:00:12.403Z,97901.94
2023-04-10T02:02:44.256Z,97890.69
2023-04-10T02:05:12.843Z,97896.75
2023-04-10T02:07:46.809Z,97895.44
2023-04-10T02:10:23.719Z,97895.38
2023-04-10T02:12:56.626Z,97899.94
2023-04-10T02:15:30.238Z,97895.66
2023-04-10T02:18:00.968Z,97897.81
2023-04-10T02:20:30.054Z,97893.69
2023-04-10T02:23:02.373Z,97897.28
2023-04-10T02:25:33.014Z,97886.63
2023-04-10T02:28:05.310Z,97893.91
2023-04-10T02:30:35.937Z,97887.91
2023-04-10T02:33:04.608Z,97889.72
2023-04-10T02:35:34.817Z,97886.16
2023-04-10T02:38:04.852Z,97888.72
2023-04-10T02:40:38.055Z,97886.44
2023-04-10T02:43:13.574Z,97886.44
2023-04-10T02:45:43.929Z,97888.38
2023-04-10T02:48:15.365Z,97888.84
2023-04-10T02:50:46.547Z,97890.00
2023-04-10T02:53:15.525Z,97894.47
2023-04-10T02:55:43.707Z,97890.84
2023-04-10T02:58:13.802Z,97895.53
2023-04-10T03:00:49.505Z,97895.59
2023-04-10T03:03:24.134Z,97894.88
2023-04-10T03:05:55.805Z,97895.03
2023-04-10T03:08:30.444Z,97888.13
2023-04-10T03:10:58.650Z,97898.09
2023-04-10T03:13:27.037Z,97889.72
2023-04-10T03:15:56.965Z,97893.13
2023-04-10T03:18:25.508Z,97883.88
2023-04-10T03:20:56.191Z,97885.31
2023-04-10T03:23:25.068Z,97892.38
2023-04-10T03:25:55.359Z,97883.66
2023-04-10T03:28:30.002Z,97884.00
2023-04-10T03:31:00.671Z,97889.38
2023-04-10T03:33:30.279Z,97898.31
2023-04-10T03:35:59.300Z,97890.78
2023-04-10T03:38:28.053Z,97894.72
2023-04-10T03:40:56.593Z,97885.38
2023-04-10T03:43:27.203Z,97896.78
2023-04-10T03:45:55.748Z,97891.53
2023-04-10T03:48:28.350Z,97893.28
2023-04-10T03:50:56.882Z,97896.41
2023-04-10T03:53:25.222Z,97898.66
2023-04-10T03:55:55.076Z,97895.56
2023-04-10T03:58:25.445Z,97894.78
2023-04-10T04:00:55.738Z,97897.31
2023-04-10T04:03:38.034Z,97897.00
2023-04-10T04:06:24.870Z,97894.84
2023-04-10T04:09:08.181Z,97893.41
2023-04-10T04:11:43.152Z,97896.81
2023-04-10T04:14:29.073Z,97893.34
2023-04-10T04:17:12.529Z,97893.63
2023-04-10T04:20:21.045Z,97901.28
2023-04-10T04:23:09.902Z,97904.91
2023-04-10T04:26:04.700Z,97906.91
2023-04-10T04:28:57.154Z,97908.66
2023-04-10T04:31:44.105Z,97913.88
2023-04-10T04:34:34.647Z,97913.16
2023-04-10T04:37:14.576Z,97918.69
2023-04-10T04:39:58.758Z,97918.25
2023-04-10T04:42:45.837Z,97915.50
2023-04-10T04:45:27.561Z,97922.13
2023-04-10T04:48:16.254Z,97926.00
2023-04-10T04:51:02.653Z,97935.59
2023-04-10T04:53:43.453Z,97937.25
2023-04-10T04:56:32.166Z,97943.13
2023-04-10T04:59:20.542Z,97941.88
2023-04-10T05:02:27.431Z,97949.34
2023-04-10T05:05:22.316Z,97952.66
2023-04-10T05:08:16.112Z,97945.19
2023-04-10T05:11:09.257Z,97949.72
2023-04-10T05:14:15.610Z,97940.78
2023-04-10T05:17:10.596Z,97943.69
2023-04-10T05:19:57.996Z,97942.47
2023-04-10T05:23:01.705Z,97954.34
2023-04-10T05:25:56.615Z,97948.94
2023-04-10T05:28:46.847Z,97958.63
2023-04-10T05:31:44.143Z,97955.97
2023-04-10T05:34:17.228Z,97955.72
2023-04-10T05:37:14.858Z,97964.97
2023-04-10T05:40:12.619Z,97958.53
2023-04-10T05:43:19.097Z,97960.44
2023-04-10T05:46:08.074Z,97952.38
2023-04-10T05:49:11.617Z,97953.94
2023-04-10T05:51:54.515Z,97948.41
2023-04-10T05:54:38.968Z,97954.28
2023-04-10T05:57:19.870Z,97951.81
2023-04-10T06:00:02.479Z,97958.13
2023-04-10T06:02:52.809Z,97960.19
2023-04-10T06:05:26.532Z,97963.44
2023-04-10T06:08:00.635Z,97958.19
2023-04-10T06:10:30.730Z,97953.91
2023-04-10T06:12:59.464Z,97950.66
2023-04-10T06:15:27.942Z,97948.31
2023-04-10T06:17:58.272Z,97955.22
2023-04-10T06:20:26.527Z,97948.66
2023-04-10T06:22:55.135Z,97954.25
2023-04-10T06:25:23.439Z,97960.22
2023-04-10T06:27:51.972Z,97953.34
2023-04-10T06:30:20.099Z,97953.19
2023-04-10T06:32:48.591Z,97955.97
2023-04-10T06:35:19.364Z,97950.97
2023-04-10T06:37:47.746Z,97956.00
2023-04-10T06:40:17.183Z,97949.97
2023-04-10T06:42:45.454Z,97950.78
2023-04-10T06:45:17.355Z,97947.03
2023-04-10T06:47:45.792Z,97950.28
2023-04-10T06:50:14.085Z,97950.97
2023-04-10T06:52:46.085Z,97954.56
2023-04-10T06:55:14.341Z,97960.81
2023-04-10T06:57:42.679Z,97954.84
2023-04-10T07:00:12.407Z,97953.38
2023-04-10T07:02:40.834Z,97954.38
2023-04-10T07:05:10.338Z,97948.09
2023-04-10T07:07:38.835Z,97937.81
2023-04-10T07:10:10.346Z,97934.84
2023-04-10T07:12:38.629Z,97941.47
2023-04-10T07:15:08.973Z,97935.34
2023-04-10T07:17:37.437Z,97929.78
2023-04-10T07:20:07.165Z,97918.53
2023-04-10T07:22:39.501Z,97932.88
2023-04-10T07:25:11.380Z,97930.56
2023-04-10T07:27:42.684Z,97927.91
2023-04-10T07:30:13.933Z,97914.03
2023-04-10T07:32:45.583Z,97908.28
2023-04-10T07:35:19.034Z,97912.41
2023-04-10T07:37:52.873Z,97916.53
2023-04-10T07:40:24.138Z,97909.94
2023-04-10T07:42:54.779Z,97908.47
2023-04-10T07:45:29.692Z,97910.06
2023-04-10T07:48:00.084Z,97883.69
2023-04-10T07:50:29.439Z,97897.19
2023-04-10T07:52:57.916Z,97891.94
2023-04-10T07:55:28.733Z,97892.72
2023-04-10T07:57:57.373Z,97892.16
2023-04-10T08:00:26.196Z,97888.66
2023-04-10T08:02:54.829Z,97882.56
2023-04-10T08:05:23.048Z,97881.81
2023-04-10T08:07:51.526Z,97880.69
2023-04-10T08:10:20.075Z,97885.59
2023-04-10T08:12:50.253Z,97878.53
2023-04-10T08:15:19.065Z,97881.50
2023-04-10T08:17:47.211Z,97883.69
2023-04-10T08:20:15.638Z,97881.38
2023-04-10T08:22:43.852Z,97876.47
2023-04-10T08:25:12.397Z,97878.13
2023-04-10T08:27:41.075Z,97871.59
2023-04-10T08:30:11.815Z,97867.28
2023-04-10T08:32:40.370Z,97871.44
2023-04-10T08:35:09.665Z,97866.63
2023-04-10T08:37:38.629Z,97868.09
2023-04-10T08:40:07.733Z,97869.56
2023-04-10T08:42:37.600Z,97865.16
2023-04-10T08:45:08.619Z,97866.69
2023-04-10T08:47:42.331Z,97874.53
2023-04-10T08:50:14.403Z,97866.34
2023-04-10T08:52:45.249Z,97860.09
2023-04-10T08:55:15.142Z,97866.53
2023-04-10T08:57:54.103Z,97866.63
2023-04-10T09:00:31.784Z,97871.94
2023-04-10T09:03:05.158Z,97873.19
2023-04-10T09:05:41.947Z,97860.50
2023-04-10T09:08:12.406Z,97859.81
2023-04-10T09:10:41.007Z,97865.28
2023-04-10T09:13:09.084Z,97858.28
2023-04-10T09:15:58.399Z,97865.78
2023-04-10T09:18:42.333Z,97861.50
2023-04-10T09:21:11.901Z,97864.63
2023-04-10T09:23:40.197Z,97856.84
2023-04-10T09:26:25.864Z,97850.69
2023-04-10T09:29:02.685Z,97849.47
2023-04-10T09:31:33.722Z,97853.34
2023-04-10T09:34:13.243Z,97836.72
2023-04-10T09:36:42.772Z,97839.91
2023-04-10T09:39:12.094Z,97848.13
2023-04-10T09:41:51.908Z,97844.03
2023-04-10T09:44:31.415Z,97837.97
2023-04-10T09:47:00.700Z,97825.06
2023-04-10T09:49:31.028Z,97843.97
2023-04-10T09:52:02.668Z,97832.72
2023-04-10T09:54:39.012Z,97831.50
2023-04-10T09:57:10.701Z,97822.50
2023-04-10T09:59:47.758Z,97821.06
2023-04-10T10:02:19.912Z,97817.19
2023-04-10T10:04:52.550Z,97825.22
2023-04-10T10:07:24.176Z,97817.06
2023-04-10T10:09:55.597Z,97822.81
2023-04-10T10:12:31.140Z,97821.19
2023-04-10T10:15:04.051Z,97805.72
2023-04-10T10:17:38.633Z,97808.28
2023-04-10T10:20:11.752Z,97807.28
2023-04-10T10:22:41.495Z,97803.03
2023-04-10T10:25:11.004Z,97802.88
2023-04-10T10:27:41.134Z,97801.50
2023-04-10T10:30:28.070Z,97801.09
2023-04-10T10:33:00.143Z,97791.28
2023-04-10T10:35:32.777Z,97791.16
2023-04-10T10:38:02.892Z,97783.34
2023-04-10T10:40:34.752Z,97788.28
2023-04-10T10:43:10.563Z,97781.22
2023-04-10T10:45:45.444Z,97789.28
2023-04-10T10:48:15.494Z,97779.19
2023-04-10T10:50:57.429Z,97772.97
2023-04-10T10:53:37.989Z,97774.03
2023-04-10T10:56:37.893Z,97760.03
2023-04-10T10:59:06.128Z,97765.53
2023-04-10T11:01:34.544Z,97761.72
2023-04-10T11:04:42.646Z,97756.97
2023-04-10T11:07:13.363Z,97749.31
2023-04-10T11:09:52.574Z,97753.50
2023-04-10T11:12:26.124Z,97749.31
2023-04-10T11:14:59.760Z,97746.56
2023-04-10T11:17:58.364Z,97743.75
2023-04-10T11:20:27.857Z,97733.69
2023-04-10T11:23:11.911Z,97737.63
2023-04-10T11:25:49.522Z,97742.78
2023-04-10T11:28:38.229Z,97730.09
2023-04-10T11:31:19.786Z,97719.66
2023-04-10T11:33:48.884Z,97722.97
2023-04-10T11:36:18.628Z,97722.78
2023-04-10T11:38:59.469Z,97720.09
2023-04-10T11:41:30.500Z,97707.72
2023-04-10T11:43:59.323Z,97719.41
2023-04-10T11:46:27.640Z,97713.06
2023-04-10T11:48:57.402Z,97718.88
2023-04-10T11:51:27.373Z,97721.66
2023-04-10T11:54:08.137Z,97718.28
2023-04-10T11:56:37.903Z,97708.50
2023-04-10T11:59:10.975Z,97703.09
2023-04-10T12:01:42.713Z,97696.03
2023-04-10T12:04:18.712Z,97698.94
2023-04-10T12:06:48.537Z,97691.16
2023-04-10T12:09:19.674Z,97694.44
2023-04-10T12:11:53.082Z,97688.81
2023-04-10T12:14:22.303Z,97695.78
2023-04-10T12:16:51.690Z,97688.13
2023-04-10T12:19:20.771Z,97683.97
2023-04-10T12:21:49.601Z,97684.88
2023-04-10T12:24:43.515Z,97676.88
2023-04-10T12:27:17.826Z,97678.28
2023-04-10T12:29:46.456Z,97676.63
2023-04-10T12:32:15.128Z,97675.19
2023-04-10T12:34:43.787Z,97663.97
2023-04-10T12:37:11.868Z,97661.66
2023-04-10T12:39:40.136Z,97660.50
2023-04-10T12:42:17.577Z,97657.53
2023-04-10T12:44:53.200Z,97658.97
2023-04-10T12:47:21.661Z,97649.34
2023-04-10T12:50:04.574Z,97640.75
2023-04-10T12:52:33.033Z,97639.38
2023-04-10T12:55:11.673Z,97640.72
2023-04-10T12:57:42.488Z,97632.09
2023-04-10T13:00:13.027Z,97633.97
2023-04-10T13:02:42.540Z,97622.41
2023-04-10T13:05:12.111Z,97619.94
2023-04-10T13:07:41.247Z,97616.38
2023-04-10T13:10:10.746Z,97617.44
2023-04-10T13:12:40.201Z,97613.50
2023-04-10T13:15:10.850Z,97605.72
2023-04-10T13:17:40.965Z,97612.00
2023-04-10T13:20:11.317Z,97604.31
2023-04-10T13:22:39.475Z,97613.56
2023-04-10T13:25:08.257Z,97609.88
2023-04-10T13:27:36.385Z,97606.34
2023-04-10T13:30:06.241Z,97604.78
2023-04-10T13:32:36.149Z,97599.91
2023-04-10T13:35:04.690Z,97596.66
2023-04-10T13:37:32.780Z,97590.44
2023-04-10T13:40:00.973Z,97591.97
2023-04-10T13:42:29.129Z,97587.25
2023-04-10T13:44:57.171Z,97587.31
2023-04-10T13:47:25.281Z,97579.66
2023-04-10T13:49:55.416Z,97580.53
2023-04-10T13:52:23.765Z,97566.81
2023-04-10T13:54:52.246Z,97571.03
2023-04-10T13:57:20.457Z,97576.41
2023-04-10T13:59:48.636Z,97574.34
2023-04-10T14:02:17.746Z,97560.25
2023-04-10T14:04:47.551Z,97563.47
2023-04-10T14:07:17.182Z,97556.44
2023-04-10T14:09:46.378Z,97568.03
2023-04-10T14:12:16.421Z,97555.09
2023-04-10T14:14:46.650Z,97554.53
2023-04-10T14:17:14.880Z,97558.19
2023-04-10T14:19:43.367Z,97546.44
2023-04-10T14:22:11.536Z,97550.50
2023-04-10T14:24:40.879Z,97545.72
2023-04-10T14:27:11.534Z,97543.88
2023-04-10T14:29:50.632Z,97539.50
2023-04-10T14:32:22.936Z,97530.75
2023-04-10T14:34:51.135Z,97527.38
2023-04-10T14:37:19.827Z,97527.63
2023-04-10T14:39:49.302Z,97528.34
2023-04-10T14:42:17.558Z,97529.34
2023-04-10T14:44:45.756Z,97517.84
2023-04-10T14:47:14.442Z,97520.63
2023-04-10T14:49:42.979Z,97510.13
2023-04-10T14:52:11.233Z,97515.66
2023-04-10T14:54:39.283Z,97503.63
2023-04-10T14:57:10.037Z,97500.97
2023-04-10T14:59:38.427Z,97496.88
2023-04-10T15:02:06.955Z,97505.81
2023-04-10T15:04:35.380Z,97506.28
2023-04-10T15:07:03.645Z,97494.50
2023-04-10T15:09:31.812Z,97500.59
2023-04-10T15:11:59.931Z,97491.66
2023-04-10T15:14:30.101Z,97486.31
2023-04-10T15:16:58.370Z,97495.41
2023-04-10T15:19:26.752Z,97500.19
2023-04-10T15:21:55.848Z,97485.50
2023-04-10T15:24:24.399Z,97476.50
2023-04-10T15:26:53.601Z,97485.09
2023-04-10T15:29:21.953Z,97477.56
2023-04-10T15:31:51.964Z,97477.84
2023-04-10T15:34:20.549Z,97469.97
2023-04-10T15:36:48.758Z,97479.00
2023-04-10T15:39:17.405Z,97479.38
2023-04-10T15:41:45.704Z,97468.56
2023-04-10T15:44:14.164Z,97461.00
2023-04-10T15:46:42.456Z,97474.28
2023-04-10T15:49:12.139Z,97461.94
2023-04-10T15:51:41.241Z,97466.69
2023-04-10T15:54:11.008Z,97459.41
2023-04-10T15:56:40.807Z,97456.00
2023-04-10T15:59:09.330Z,97454.66
2023-04-10T16:01:37.744Z,97450.66
2023-04-10T16:04:06.400Z,97448.13
2023-04-10T16:06:36.127Z,97445.00
2023-04-10T16:09:12.452Z,97434.88
2023-04-10T16:11:51.409Z,97438.00
2023-04-10T16:14:20.088Z,97438.22
2023-04-10T16:16:48.290Z,97430.78
2023-04-10T16:19:16.708Z,97428.06
2023-04-10T16:21:46.531Z,97423.19
2023-04-10T16:24:15.105Z,97417.63
2023-04-10T16:26:43.403Z,97413.19
2023-04-10T16:29:11.562Z,97423.03
2023-04-10T16:31:40.431Z,97408.28
2023-04-10T16:34:08.772Z,97406.28
2023-04-10T16:36:37.042Z,97404.16
2023-04-10T16:39:07.966Z,97402.50
2023-04-10T16:41:42.996Z,97392.19
2023-04-10T16:44:11.367Z,97396.00
2023-04-10T16:46:39.841Z,97392.44
2023-04-10T16:49:08.482Z,97395.06
2023-04-10T16:51:36.755Z,97394.22
2023-04-10T16:54:06.744Z,97394.78
2023-04-10T16:56:34.927Z,97384.03
2023-04-10T16:59:03.333Z,97377.16
2023-04-10T17:01:32.177Z,97383.16
2023-04-10T17:04:01.068Z,97379.72
2023-04-10T17:06:29.295Z,97379.84
2023-04-10T17:08:58.121Z,97377.94
2023-04-10T17:11:29.504Z,97379.28
2023-04-10T17:13:58.567Z,97372.56
2023-04-10T17:16:27.516Z,97372.19
2023-04-10T17:18:56.019Z,97369.00
2023-04-10T17:21:47.364Z,97373.78
2023-04-10T17:24:15.676Z,97369.53
2023-04-10T17:26:45.601Z,97364.09
2023-04-10T17:29:13.781Z,97372.03
2023-04-10T17:31:42.786Z,97367.50
2023-04-10T17:34:11.193Z,97376.78
2023-04-10T17:36:39.860Z,97372.69
2023-04-10T17:39:08.279Z,97377.53
2023-04-10T17:41:36.747Z,97375.59
2023-04-10T17:44:06.451Z,97366.84
2023-04-10T17:46:35.116Z,97365.59
2023-04-10T17:49:03.723Z,97361.72
2023-04-10T17:51:32.752Z,97360.31
2023-04-10T17:54:01.359Z,97365.59
2023-04-10T17:56:30.738Z,97370.50
2023-04-10T17:59:00.693Z,97359.53
2023-04-10T18:01:31.258Z,97354.75
2023-04-10T18:04:00.360Z,97350.84
2023-04-10T18:06:28.666Z,97341.50
2023-04-10T18:08:57.860Z,97336.88
2023-04-10T18:11:26.248Z,97333.19
2023-04-10T18:13:55.644Z,97334.47
2023-04-10T18:16:23.837Z,97335.53
2023-04-10T18:18:54.158Z,97340.97
2023-04-10T18:21:22.796Z,97336.00
2023-04-10T18:23:51.297Z,97338.75
2023-04-10T18:26:21.037Z,97334.56
2023-04-10T18:28:49.756Z,97334.56
2023-04-10T18:31:19.168Z,97332.78
2023-04-10T18:33:56.184Z,97328.19
2023-04-10T18:36:33.860Z,97331.84
2023-04-10T18:39:02.456Z,97321.34
2023-04-10T18:41:30.415Z,97322.75
2023-04-10T18:44:04.814Z,97323.34
2023-04-10T18:46:34.492Z,97322.50
2023-04-10T18:49:03.364Z,97319.78
2023-04-10T18:51:35.602Z,97323.06
2023-04-10T18:54:04.146Z,97318.47
2023-04-10T18:56:32.703Z,97313.50
2023-04-10T18:59:01.192Z,97300.03
2023-04-10T19:01:29.340Z,97289.97
2023-04-10T19:03:57.814Z,97297.44
2023-04-10T19:06:26.986Z,97293.75
2023-04-10T19:08:56.811Z,97298.84
2023-04-10T19:11:25.754Z,97294.56
2023-04-10T19:13:54.612Z,97290.53
2023-04-10T19:16:23.085Z,97283.13
2023-04-10T19:18:51.403Z,97286.88
2023-04-10T19:21:19.892Z,97279.91
2023-04-10T19:23:48.196Z,97283.06
2023-04-10T19:26:20.205Z,97280.84
2023-04-10T19:28:48.407Z,97268.91
2023-04-10T19:31:17.103Z,97274.22
2023-04-10T19:33:46.311Z,97271.00
2023-04-10T19:36:16.942Z,97268.41
2023-04-10T19:38:48.949Z,97266.91
2023-04-10T19:41:19.168Z,97256.72
2023-04-10T19:43:48.148Z,97249.66
2023-04-10T19:46:18.079Z,97253.28
2023-04-10T19:48:46.655Z,97248.63
2023-04-10T19:51:14.707Z,97254.84
2023-04-10T19:53:43.188Z,97251.22
2023-04-10T19:56:11.589Z,97245.81
2023-04-10T19:58:42.153Z,97234.50
2023-04-10T20:01:11.998Z,97240.75
2023-04-10T20:03:40.739Z,97229.06
2023-04-10T20:06:10.163Z,97225.06
2023-04-10T20:08:38.746Z,97225.53
2023-04-10T20:11:07.402Z,97219.41
2023-04-10T20:13:35.921Z,97222.81
2023-04-10T20:16:05.681Z,97222.13
2023-04-10T20:18:33.961Z,97207.59
2023-04-10T20:21:02.112Z,97206.53
2023-04-10T20:23:30.237Z,97200.75
2023-04-10T20:25:59.005Z,97202.28
2023-04-10T20:28:27.029Z,97193.41
2023-04-10T20:30:55.183Z,97186.44
2023-04-10T20:33:24.560Z,97183.13
2023-04-10T20:35:54.187Z,97180.63
2023-04-10T20:38:22.592Z,97170.72
2023-04-10T20:40:50.983Z,97174.72
2023-04-10T20:43:19.072Z,97174.50
2023-04-10T20:45:47.667Z,97169.53
2023-04-10T20:48:16.066Z,97171.75
2023-04-10T20:50:49.479Z,97176.97
2023-04-10T20:53:17.675Z,97173.41
2023-04-10T20:55:46.036Z,97174.25
2023-04-10T20:58:14.402Z,97167.75
2023-04-10T21:00:42.935Z,97165.72
2023-04-10T21:03:11.399Z,97166.34
2023-04-10T21:05:41.576Z,97172.25
2023-04-10T21:08:13.002Z,97159.59
2023-04-10T21:10:44.314Z,97166.47
2023-04-10T21:13:14.164Z,97152.72
2023-04-10T21:15:43.027Z,97153.56
2023-04-10T21:18:12.359Z,97146.97
2023-04-10T21:20:40.454Z,97139.28
2023-04-10T21:23:10.305Z,97145.44
2023-04-10T21:25:40.066Z,97139.13
2023-04-10T21:28:08.650Z,97139.03
2023-04-10T21:30:36.809Z,97128.22
2023-04-10T21:33:05.139Z,97131.66
2023-04-10T21:35:33.490Z,97125.91
2023-04-10T21:38:02.680Z,97129.75
2023-04-10T21:40:34.530Z,97120.16
2023-04-10T21:43:02.889Z,97110.72
2023-04-10T21:45:30.871Z,97103.63
2023-04-10T21:48:00.516Z,97095.00
2023-04-10T21:50:28.825Z,97095.94
2023-04-10T21:52:57.546Z,97092.28
2023-04-10T21:55:25.671Z,97096.91
2023-04-10T21:57:55.080Z,97094.69
2023-04-10T22:00:23.305Z,97092.16
2023-04-10T22:02:52.212Z,97104.34
2023-04-10T22:05:24.571Z,97088.69
2023-04-10T22:07:53.266Z,97091.94
2023-04-10T22:10:21.844Z,97084.56
2023-04-10T22:12:50.096Z,97081.72
2023-04-10T22:15:19.743Z,97084.31
2023-04-10T22:17:47.875Z,97074.72
2023-04-10T22:20:15.897Z,97073.41
2023-04-10T22:22:44.334Z,97069.28
2023-04-10T22:25:12.664Z,97065.63
2023-04-10T22:27:40.754Z,97059.25
2023-04-10T22:30:10.805Z,97055.88
2023-04-10T22:32:40.347Z,97060.72
2023-04-10T22:35:09.447Z,97061.91
2023-04-10T22:37:37.666Z,97055.16
2023-04-10T22:40:07.289Z,97050.19
2023-04-10T22:42:35.475Z,97052.56
2023-04-10T22:45:03.702Z,97050.72
2023-04-10T22:47:32.352Z,97046.00
2023-04-10T22:50:02.198Z,97045.44
2023-04-10T22:52:30.527Z,97041.66
2023-04-10T22:54:58.691Z,97039.19
2023-04-10T22:57:27.090Z,97038.16
2023-04-10T22:59:55.402Z,97033.97
2023-04-10T23:02:23.724Z,97021.56
2023-04-10T23:04:52.146Z,97032.94
2023-04-10T23:07:21.604Z,97021.84
2023-04-10T23:09:49.636Z,97024.81
2023-04-10T23:12:17.698Z,97016.69
2023-04-10T23:14:45.855Z,97016.00
2023-04-10T23:17:14.156Z,97006.97
2023-04-10T23:19:42.433Z,97013.97
2023-04-10T23:22:10.787Z,97005.03
2023-04-10T23:24:40.406Z,96995.00
2023-04-10T23:27:08.703Z,96989.56
2023-04-10T23:29:36.975Z,96979.34
2023-04-10T23:32:05.934Z,96976.09
2023-04-10T23:34:34.022Z,96969.78
2023-04-10T23:37:02.120Z,96963.16
2023-04-10T23:39:30.151Z,96963.63
2023-04-10T23:42:00.502Z,96960.53
2023-04-10T23:44:28.631Z,96959.50
2023-04-10T23:46:56.857Z,96954.97
2023-04-10T23:49:24.986Z,96941.06
2023-04-10T23:51:52.976Z,96940.03
2023-04-10T23:54:21.144Z,96926.44
2023-04-10T23:56:49.662Z,96927.63
2023-04-10T23:59:19.413Z,96923.22
